Time;durP1;ratioP1;P1;durP2;ratioP2;P2;SDS_P1;SDS_P2;PMS_P1;PMS_P2;Temp;Humidity;BMP_temperature;BMP_pressure;BME280_temperature;BME280_humidity;BME280_pressure;Samples;Min_cycle;Max_cycle;Signal;HPM_P1;HPM_P2
2022/06/12 00:00:42;;;;;;;2.25;2.10;;;;;;;;;;5046574;28;20322;-62
2022/06/12 00:03:12;;;;;;;1.70;1.70;;;;;;;;;;5046203;28;20208;-62
2022/06/12 00:05:40;;;;;;;2.33;2.22;;;;;;;;;;5046092;28;20208;-62
2022/06/12 00:08:08;;;;;;;2.63;2.00;;;;;;;;;;5045878;28;20235;-62
2022/06/12 00:10:36;;;;;;;2.15;1.92;;;;;;;;;;5046538;28;20211;-61
2022/06/12 00:13:03;;;;;;;3.08;2.35;;;;;;;;;;5046661;28;20208;-62
2022/06/12 00:15:31;;;;;;;1.92;1.83;;;;;;;;;;5031693;28;20219;-62
2022/06/12 00:17:59;;;;;;;2.42;2.17;;;;;;;;;;5042630;28;20265;-61
2022/06/12 00:20:28;;;;;;;2.13;2.03;;;;;;;;;;5046888;28;20220;-62
2022/06/12 00:22:56;;;;;;;1.88;1.88;;;;;;;;;;5046117;28;20211;-61
2022/06/12 00:25:23;;;;;;;2.50;2.40;;;;;;;;;;5046272;28;20208;-61
2022/06/12 00:27:51;;;;;;;2.22;2.00;;;;;;;;;;5040676;28;20211;-62
2022/06/12 00:30:20;;;;;;;2.00;1.90;;;;;;;;;;5046737;28;20207;-62
2022/06/12 00:32:52;;;;;;;2.63;2.42;;;;;;;;;;5046308;28;20306;-61
2022/06/12 00:35:20;;;;;;;2.08;1.98;;;;;;;;;;5046681;28;20203;-61
2022/06/12 00:37:48;;;;;;;2.08;2.00;;;;;;;;;;5045386;28;20231;-62
2022/06/12 00:40:16;;;;;;;2.20;2.20;;;;;;;;;;5045987;28;21049;-62
2022/06/12 00:42:47;;;;;;;2.45;2.30;;;;;;;;;;5045888;28;20203;-62
2022/06/12 00:45:33;;;;;;;1.95;1.95;;;;;;;;;;5046461;28;20204;-62
2022/06/12 00:48:01;;;;;;;2.08;1.98;;;;;;;;;;5045528;28;20303;-62
2022/06/12 00:50:28;;;;;;;2.40;2.30;;;;;;;;;;5046644;28;20296;-62
2022/06/12 00:52:57;;;;;;;2.58;2.38;;;;;;;;;;5045401;28;20231;-62
2022/06/12 00:55:25;;;;;;;2.33;2.22;;;;;;;;;;5046278;28;20500;-62
2022/06/12 00:57:54;;;;;;;2.25;2.13;;;;;;;;;;5031704;28;20208;-62
2022/06/12 01:00:22;;;;;;;2.50;2.40;;;;;;;;;;5040053;28;20212;-62
2022/06/12 01:02:50;;;;;;;2.45;1.95;;;;;;;;;;5048567;28;20204;-59
2022/06/12 01:08:02;;;;;;;2.08;1.98;;;;;;;;;;5010911;28;20678;-59
2022/06/12 01:10:29;;;;;;;2.60;2.40;;;;;;;;;;5046739;28;20622;-59
2022/06/12 01:12:58;;;;;;;4.90;2.00;;;;;;;;;;5048936;28;20211;-59
2022/06/12 01:15:28;;;;;;;2.00;1.90;;;;;;;;;;5038600;28;20216;-59
2022/06/12 01:17:56;;;;;;;2.83;2.50;;;;;;;;;;5049099;28;20780;-59
2022/06/12 01:20:27;;;;;;;2.20;2.20;;;;;;;;;;5049166;28;20257;-59
2022/06/12 01:23:15;;;;;;;2.13;2.03;;;;;;;;;;5049978;28;20196;-59
2022/06/12 01:25:54;;;;;;;4.20;2.03;;;;;;;;;;5048987;28;20345;-59
2022/06/12 01:28:48;;;;;;;2.30;2.20;;;;;;;;;;5049498;28;20281;-59
2022/06/12 01:31:36;;;;;;;2.42;2.22;;;;;;;;;;5044913;28;20204;-59
2022/06/12 01:34:10;;;;;;;2.08;1.92;;;;;;;;;;5036048;28;20211;-60
2022/06/12 01:36:42;;;;;;;2.40;2.30;;;;;;;;;;5049562;28;20368;-59
2022/06/12 01:39:13;;;;;;;2.20;2.10;;;;;;;;;;5048352;28;20199;-60
2022/06/12 01:41:43;;;;;;;8.43;2.38;;;;;;;;;;5048867;28;20200;-59
2022/06/12 01:44:13;;;;;;;2.25;2.13;;;;;;;;;;5048809;28;20203;-60
2022/06/12 01:46:44;;;;;;;2.70;2.50;;;;;;;;;;5048835;28;20661;-59
2022/06/12 01:49:15;;;;;;;2.45;2.35;;;;;;;;;;5042792;28;20602;-59
2022/06/12 01:51:47;;;;;;;2.25;2.10;;;;;;;;;;5048991;28;20200;-59
2022/06/12 01:54:19;;;;;;;2.38;2.20;;;;;;;;;;5048618;28;20281;-59
2022/06/12 01:56:49;;;;;;;2.22;2.03;;;;;;;;;;5048992;28;20250;-59
2022/06/12 01:59:18;;;;;;;2.22;2.03;;;;;;;;;;5048823;28;20214;-59
2022/06/12 02:01:50;;;;;;;2.40;2.30;;;;;;;;;;5047958;28;20203;-59
2022/06/12 02:04:22;;;;;;;2.30;2.20;;;;;;;;;;5049137;28;20298;-59
2022/06/12 02:06:52;;;;;;;2.30;2.10;;;;;;;;;;5048763;28;20215;-59
2022/06/12 02:09:20;;;;;;;2.15;2.13;;;;;;;;;;5048308;28;20564;-59
2022/06/12 02:14:38;;;;;;;1.75;1.73;;;;;;;;;;5048420;28;20320;-59
2022/06/12 02:17:08;;;;;;;2.00;2.00;;;;;;;;;;5048675;28;20239;-59
2022/06/12 02:19:40;;;;;;;2.10;2.00;;;;;;;;;;5047803;28;20583;-59
2022/06/12 02:22:08;;;;;;;2.08;1.98;;;;;;;;;;5048684;28;20295;-59
2022/06/12 02:24:37;;;;;;;2.50;1.90;;;;;;;;;;5047725;28;20670;-59
2022/06/12 02:27:07;;;;;;;2.08;1.98;;;;;;;;;;5027514;28;20258;-59
2022/06/12 02:29:35;;;;;;;2.95;2.75;;;;;;;;;;5042077;28;20234;-59
2022/06/12 02:32:05;;;;;;;2.50;2.40;;;;;;;;;;5048055;28;20211;-59
2022/06/12 02:34:34;;;;;;;2.00;1.90;;;;;;;;;;5047440;28;20203;-59
2022/06/12 02:37:04;;;;;;;2.40;2.30;;;;;;;;;;5048496;28;20215;-59
2022/06/12 02:39:32;;;;;;;1.95;1.95;;;;;;;;;;5039761;28;20207;-59
2022/06/12 02:42:01;;;;;;;2.03;1.92;;;;;;;;;;5047872;28;20203;-59
2022/06/12 02:44:33;;;;;;;2.15;2.05;;;;;;;;;;5047725;28;20200;-59
2022/06/12 02:47:05;;;;;;;2.00;1.98;;;;;;;;;;5047851;28;20253;-59
2022/06/12 02:49:33;;;;;;;2.28;1.95;;;;;;;;;;5047897;28;20219;-59
2022/06/12 02:52:08;;;;;;;2.50;2.40;;;;;;;;;;5053764;28;20294;-59
2022/06/12 02:54:39;;;;;;;2.08;1.98;;;;;;;;;;5041730;28;20226;-59
2022/06/12 02:57:09;;;;;;;2.50;2.35;;;;;;;;;;5054663;28;20207;-59
2022/06/12 02:59:42;;;;;;;3.00;2.30;;;;;;;;;;5054481;28;20260;-59
2022/06/12 03:02:13;;;;;;;2.05;1.95;;;;;;;;;;5053721;28;20203;-59
2022/06/12 03:04:42;;;;;;;2.17;2.17;;;;;;;;;;5054682;28;20203;-59
2022/06/12 03:07:11;;;;;;;2.03;1.92;;;;;;;;;;5054935;28;20199;-59
2022/06/12 03:09:38;;;;;;;2.22;2.20;;;;;;;;;;5054291;28;20308;-59
2022/06/12 03:12:06;;;;;;;2.50;2.28;;;;;;;;;;5054874;28;20249;-59
2022/06/12 03:14:33;;;;;;;2.17;1.85;;;;;;;;;;5054616;28;20207;-59
2022/06/12 03:17:00;;;;;;;2.20;2.13;;;;;;;;;;5054163;28;20794;-59
2022/06/12 03:19:29;;;;;;;2.10;2.00;;;;;;;;;;5054438;28;20196;-59
2022/06/12 03:22:03;;;;;;;2.03;2.03;;;;;;;;;;5054017;28;20206;-59
2022/06/12 03:24:37;;;;;;;2.17;2.08;;;;;;;;;;5054718;28;20199;-59
2022/06/12 03:27:12;;;;;;;1.85;1.80;;;;;;;;;;5054643;28;20257;-60
2022/06/12 03:29:42;;;;;;;2.05;1.90;;;;;;;;;;5054195;28;20226;-60
2022/06/12 03:32:15;;;;;;;2.03;1.92;;;;;;;;;;5054255;28;20211;-59
2022/06/12 03:34:45;;;;;;;2.05;2.00;;;;;;;;;;5053561;28;20253;-59
2022/06/12 03:37:19;;;;;;;1.85;1.85;;;;;;;;;;5034855;28;20278;-59
2022/06/12 03:39:50;;;;;;;2.30;2.20;;;;;;;;;;5052483;28;20203;-58
2022/06/12 03:42:20;;;;;;;1.80;1.70;;;;;;;;;;5054554;28;20739;-59
2022/06/12 03:44:55;;;;;;;1.85;1.83;;;;;;;;;;5054134;28;20208;-59
2022/06/12 03:47:28;;;;;;;6.20;2.20;;;;;;;;;;5054766;28;20206;-59
2022/06/12 03:49:59;;;;;;;2.80;2.20;;;;;;;;;;5053333;28;20215;-59
2022/06/12 03:52:28;;;;;;;2.03;1.92;;;;;;;;;;5049944;28;20211;-58
2022/06/12 03:54:59;;;;;;;2.28;2.20;;;;;;;;;;5053923;28;20250;-58
2022/06/12 04:00:17;;;;;;;3.70;2.13;;;;;;;;;;5041175;28;20231;-58
2022/06/12 04:02:45;;;;;;;1.92;1.88;;;;;;;;;;5045730;28;20793;-59
2022/06/12 04:05:16;;;;;;;2.15;2.05;;;;;;;;;;5050856;28;20273;-58
2022/06/12 04:07:45;;;;;;;1.73;1.73;;;;;;;;;;5050931;28;20234;-58
2022/06/12 04:10:16;;;;;;;3.00;2.60;;;;;;;;;;5051083;28;20223;-58
2022/06/12 04:12:43;;;;;;;2.45;2.05;;;;;;;;;;5050574;28;20207;-58
2022/06/12 04:15:15;;;;;;;1.90;1.85;;;;;;;;;;5050822;28;20294;-58
2022/06/12 04:17:42;;;;;;;2.47;2.30;;;;;;;;;;5050779;28;20207;-59
2022/06/12 04:20:13;;;;;;;2.20;2.20;;;;;;;;;;5051099;28;20610;-58
2022/06/12 04:22:47;;;;;;;2.78;2.03;;;;;;;;;;5050350;28;20285;-58
2022/06/12 04:25:22;;;;;;;1.92;1.90;;;;;;;;;;5041481;28;20307;-59
2022/06/12 04:27:49;;;;;;;2.10;2.10;;;;;;;;;;5050892;28;20214;-59
2022/06/12 04:30:19;;;;;;;3.13;1.83;;;;;;;;;;5048973;28;20705;-59
2022/06/12 04:32:46;;;;;;;2.17;2.08;;;;;;;;;;5045308;28;20334;-58
2022/06/12 04:35:13;;;;;;;2.15;2.00;;;;;;;;;;5049305;28;20245;-59
2022/06/12 04:37:42;;;;;;;2.10;2.05;;;;;;;;;;5050039;28;20722;-58
2022/06/12 04:40:16;;;;;;;2.05;2.05;;;;;;;;;;5037907;28;20204;-59
2022/06/12 04:42:45;;;;;;;2.38;2.22;;;;;;;;;;5041942;28;20321;-58
2022/06/12 04:45:12;;;;;;;2.03;1.92;;;;;;;;;;5049814;28;20283;-58
2022/06/12 04:47:40;;;;;;;1.95;1.88;;;;;;;;;;5050187;28;20214;-59
2022/06/12 04:50:08;;;;;;;1.70;1.70;;;;;;;;;;5050080;28;20223;-59
2022/06/12 04:52:36;;;;;;;1.98;1.95;;;;;;;;;;5049817;28;20783;-58
2022/06/12 04:55:04;;;;;;;2.50;2.10;;;;;;;;;;5049004;28;20239;-59
2022/06/12 04:57:31;;;;;;;2.10;2.10;;;;;;;;;;5049910;28;20207;-59
2022/06/12 04:59:59;;;;;;;2.80;2.70;;;;;;;;;;5049580;28;20208;-59
2022/06/12 05:02:26;;;;;;;3.13;2.17;;;;;;;;;;5049245;28;20338;-59
2022/06/12 05:04:54;;;;;;;2.10;2.00;;;;;;;;;;5049737;28;20199;-58
2022/06/12 05:07:21;;;;;;;3.55;2.17;;;;;;;;;;5050073;28;20207;-59
2022/06/12 05:09:48;;;;;;;5.55;2.10;;;;;;;;;;5049715;28;20298;-59
2022/06/12 05:12:15;;;;;;;2.03;1.98;;;;;;;;;;5049583;28;20257;-59
2022/06/12 05:14:42;;;;;;;2.10;2.00;;;;;;;;;;5048265;28;20621;-59
2022/06/12 05:17:13;;;;;;;2.13;1.98;;;;;;;;;;5049437;28;20207;-59
2022/06/12 05:19:43;;;;;;;2.00;2.00;;;;;;;;;;5048622;28;20212;-59
2022/06/12 05:22:10;;;;;;;2.17;2.08;;;;;;;;;;5044678;28;20228;-59
2022/06/12 05:24:37;;;;;;;1.92;1.80;;;;;;;;;;5045890;28;20204;-59
2022/06/12 05:27:05;;;;;;;1.98;1.88;;;;;;;;;;5047401;28;20254;-59
2022/06/12 05:29:33;;;;;;;6.50;2.20;;;;;;;;;;5047011;28;20211;-60
2022/06/12 05:32:01;;;;;;;2.88;1.75;;;;;;;;;;5048929;28;20214;-59
2022/06/12 05:34:30;;;;;;;1.70;1.60;;;;;;;;;;5048761;28;20212;-60
2022/06/12 05:36:59;;;;;;;2.30;1.70;;;;;;;;;;5049393;28;20250;-59
2022/06/12 05:39:26;;;;;;;1.73;1.60;;;;;;;;;;5049889;28;20211;-60
2022/06/12 05:41:53;;;;;;;1.50;1.50;;;;;;;;;;5049303;28;20574;-59
2022/06/12 05:44:20;;;;;;;1.92;1.85;;;;;;;;;;5048519;28;20211;-59
2022/06/12 05:46:48;;;;;;;1.80;1.70;;;;;;;;;;5049277;28;20815;-59
2022/06/12 05:49:16;;;;;;;1.73;1.63;;;;;;;;;;5049113;28;20211;-59
2022/06/12 05:51:44;;;;;;;1.83;1.73;;;;;;;;;;5048709;28;20220;-58
2022/06/12 05:54:12;;;;;;;2.33;2.10;;;;;;;;;;5047521;28;20782;-59
2022/06/12 05:56:40;;;;;;;2.25;2.15;;;;;;;;;;5049082;28;20246;-60
2022/06/12 05:59:07;;;;;;;2.67;1.80;;;;;;;;;;5049087;28;20220;-60
2022/06/12 06:01:34;;;;;;;2.13;1.95;;;;;;;;;;5049594;28;20233;-59
2022/06/12 06:04:01;;;;;;;1.80;1.60;;;;;;;;;;5048604;28;20208;-59
2022/06/12 06:06:30;;;;;;;1.50;1.40;;;;;;;;;;5048934;28;20637;-60
2022/06/12 06:08:59;;;;;;;1.48;1.35;;;;;;;;;;5048437;28;20219;-59
2022/06/12 06:11:27;;;;;;;1.27;1.27;;;;;;;;;;5048780;28;20285;-60
2022/06/12 06:13:54;;;;;;;1.73;1.63;;;;;;;;;;5038074;28;20200;-59
2022/06/12 06:16:21;;;;;;;1.33;1.33;;;;;;;;;;5049368;28;21043;-61
2022/06/12 06:18:48;;;;;;;1.40;1.40;;;;;;;;;;5042189;28;20265;-61
2022/06/12 06:21:15;;;;;;;1.27;1.27;;;;;;;;;;5049004;28;20203;-61
2022/06/12 06:23:45;;;;;;;1.23;1.20;;;;;;;;;;5048108;28;20250;-61
2022/06/12 06:26:13;;;;;;;1.20;1.10;;;;;;;;;;5046150;28;20750;-61
2022/06/12 06:28:40;;;;;;;1.25;1.20;;;;;;;;;;5048566;28;20207;-61
2022/06/12 06:31:08;;;;;;;1.17;1.05;;;;;;;;;;5048805;28;20322;-61
2022/06/12 06:33:36;;;;;;;1.27;1.00;;;;;;;;;;5047679;28;20737;-63
2022/06/12 06:36:03;;;;;;;1.73;1.30;;;;;;;;;;5048236;28;20200;-62
2022/06/12 06:38:30;;;;;;;1.17;1.08;;;;;;;;;;5048049;28;20736;-60
2022/06/12 06:40:57;;;;;;;1.35;1.25;;;;;;;;;;5045698;28;20203;-60
2022/06/12 06:43:26;;;;;;;1.85;0.95;;;;;;;;;;5048234;28;20692;-61
2022/06/12 06:48:37;;;;;;;1.40;0.95;;;;;;;;;;5047675;28;20297;-61
2022/06/12 06:51:05;;;;;;;2.33;0.80;;;;;;;;;;5048189;28;20301;-61
2022/06/12 06:53:32;;;;;;;2.00;0.80;;;;;;;;;;5048347;28;20657;-61
2022/06/12 06:55:59;;;;;;;0.90;0.90;;;;;;;;;;5039428;28;20932;-61
2022/06/12 06:58:30;;;;;;;1.10;1.10;;;;;;;;;;5047607;28;20215;-61
2022/06/12 07:00:57;;;;;;;1.20;1.10;;;;;;;;;;5048028;28;20612;-61
2022/06/12 07:03:24;;;;;;;1.75;1.02;;;;;;;;;;5048221;28;20207;-62
2022/06/12 07:05:58;;;;;;;1.17;1.15;;;;;;;;;;5047524;28;20200;-61
2022/06/12 07:08:25;;;;;;;0.65;0.65;;;;;;;;;;5046042;28;20203;-61
2022/06/12 07:10:54;;;;;;;3.55;1.27;;;;;;;;;;5047251;28;20220;-61
2022/06/12 07:13:21;;;;;;;2.63;0.98;;;;;;;;;;5047496;28;20228;-62
2022/06/12 07:15:50;;;;;;;0.70;0.70;;;;;;;;;;5047685;28;20208;-62
2022/06/12 07:18:17;;;;;;;0.95;0.93;;;;;;;;;;5047640;28;20208;-62
2022/06/12 07:20:47;;;;;;;2.20;1.23;;;;;;;;;;5047561;28;20210;-61
2022/06/12 07:23:14;;;;;;;2.47;1.02;;;;;;;;;;5046573;28;20208;-61
2022/06/12 07:25:43;;;;;;;2.97;1.08;;;;;;;;;;5047323;28;20579;-62
2022/06/12 07:28:10;;;;;;;1.17;1.08;;;;;;;;;;5047402;28;20207;-61
2022/06/12 07:30:38;;;;;;;1.02;0.93;;;;;;;;;;5047516;28;20232;-61
2022/06/12 07:33:06;;;;;;;1.10;1.10;;;;;;;;;;5047430;28;20204;-61
2022/06/12 07:35:34;;;;;;;1.35;0.93;;;;;;;;;;5046951;28;20273;-61
2022/06/12 07:38:01;;;;;;;1.35;1.15;;;;;;;;;;5048349;28;20258;-61
2022/06/12 07:40:31;;;;;;;1.70;0.90;;;;;;;;;;5051892;28;20265;-61
2022/06/12 07:42:58;;;;;;;2.20;1.15;;;;;;;;;;5051676;28;20200;-61
2022/06/12 07:45:25;;;;;;;0.95;0.90;;;;;;;;;;5051363;28;20557;-61
2022/06/12 07:47:52;;;;;;;1.88;1.00;;;;;;;;;;5051765;28;20225;-62
2022/06/12 07:50:20;;;;;;;1.13;1.02;;;;;;;;;;5051400;28;20252;-61
2022/06/12 07:52:48;;;;;;;1.00;1.00;;;;;;;;;;5051408;28;20224;-61
2022/06/12 07:55:16;;;;;;;1.65;1.10;;;;;;;;;;5050372;28;20240;-62
2022/06/12 07:57:44;;;;;;;1.20;1.10;;;;;;;;;;5051760;28;20272;-62
2022/06/12 08:00:13;;;;;;;1.40;1.20;;;;;;;;;;5051104;28;20215;-62
2022/06/12 08:02:40;;;;;;;1.08;1.02;;;;;;;;;;5051541;28;20294;-62
2022/06/12 08:05:08;;;;;;;2.45;0.95;;;;;;;;;;5051552;28;20207;-62
2022/06/12 08:07:36;;;;;;;3.38;1.70;;;;;;;;;;5051350;28;20270;-62
2022/06/12 08:10:04;;;;;;;1.90;1.58;;;;;;;;;;5051169;28;20212;-62
2022/06/12 08:12:31;;;;;;;1.42;1.20;;;;;;;;;;5051133;28;20293;-62
2022/06/12 08:14:59;;;;;;;1.35;1.25;;;;;;;;;;5049694;28;20207;-62
2022/06/12 08:17:26;;;;;;;1.42;1.20;;;;;;;;;;5050999;28;20207;-62
2022/06/12 08:22:39;;;;;;;5.38;3.75;;;;;;;;;;5051341;28;20207;-63
2022/06/12 08:25:06;;;;;;;1.85;1.50;;;;;;;;;;5050739;28;20215;-62
2022/06/12 08:27:33;;;;;;;11.77;7.10;;;;;;;;;;5049327;28;20208;-62
2022/06/12 08:30:00;;;;;;;5.82;4.75;;;;;;;;;;5050752;28;20204;-64
2022/06/12 08:32:27;;;;;;;3.08;1.15;;;;;;;;;;5050847;28;20786;-62
2022/06/12 08:34:57;;;;;;;1.42;1.33;;;;;;;;;;5050069;28;20208;-62
2022/06/12 08:37:26;;;;;;;1.35;1.25;;;;;;;;;;5050466;28;20207;-63
2022/06/12 08:39:54;;;;;;;1.17;1.17;;;;;;;;;;5050843;28;20215;-61
2022/06/12 08:42:24;;;;;;;2.33;1.23;;;;;;;;;;5050706;28;20248;-61
2022/06/12 08:44:53;;;;;;;4.13;1.35;;;;;;;;;;5049494;28;20299;-61
2022/06/12 08:47:25;;;;;;;1.50;1.40;;;;;;;;;;5050474;28;20262;-61
2022/06/12 08:49:55;;;;;;;1.38;1.23;;;;;;;;;;5047027;28;20199;-61
2022/06/12 08:52:26;;;;;;;1.25;1.15;;;;;;;;;;5050575;28;20223;-61
2022/06/12 08:54:58;;;;;;;2.90;1.48;;;;;;;;;;5049407;28;20246;-61
2022/06/12 08:57:27;;;;;;;1.20;1.20;;;;;;;;;;5050618;28;20265;-61
2022/06/12 08:59:56;;;;;;;0.90;0.90;;;;;;;;;;5050392;28;20261;-61
2022/06/12 09:02:26;;;;;;;0.85;0.85;;;;;;;;;;5050311;28;20210;-61
2022/06/12 09:04:53;;;;;;;2.38;1.40;;;;;;;;;;5045659;28;20291;-61
2022/06/12 09:07:24;;;;;;;2.72;1.27;;;;;;;;;;5030316;28;20266;-61
2022/06/12 09:09:53;;;;;;;1.10;1.10;;;;;;;;;;5037130;28;20215;-61
2022/06/12 09:12:25;;;;;;;1.40;1.02;;;;;;;;;;5048429;28;20231;-62
2022/06/12 09:15:01;;;;;;;1.30;1.20;;;;;;;;;;5049385;28;20230;-61
2022/06/12 09:17:31;;;;;;;1.25;1.20;;;;;;;;;;5047881;28;20741;-62
2022/06/12 09:20:03;;;;;;;1.60;1.60;;;;;;;;;;5049008;28;20230;-62
2022/06/12 09:22:34;;;;;;;1.83;1.45;;;;;;;;;;5048948;28;20206;-61
2022/06/12 09:25:04;;;;;;;3.50;1.60;;;;;;;;;;5049122;28;20207;-61
2022/06/12 09:27:36;;;;;;;1.75;1.10;;;;;;;;;;5048556;28;20639;-62
2022/06/12 09:30:08;;;;;;;1.02;0.90;;;;;;;;;;5048951;28;20211;-61
2022/06/12 09:32:41;;;;;;;2.15;1.20;;;;;;;;;;5049235;28;20697;-61
2022/06/12 09:35:14;;;;;;;1.08;1.00;;;;;;;;;;5048981;28;20195;-62
2022/06/12 09:40:37;;;;;;;2.47;1.10;;;;;;;;;;5049101;28;20668;-61
2022/06/12 09:43:17;;;;;;;2.55;1.52;;;;;;;;;;5048995;28;20210;-61
2022/06/12 09:45:49;;;;;;;3.67;1.23;;;;;;;;;;5048151;28;20207;-61
2022/06/12 09:48:21;;;;;;;1.33;1.30;;;;;;;;;;5048509;28;20257;-61
2022/06/12 09:50:53;;;;;;;1.10;1.10;;;;;;;;;;5048524;28;20208;-62
2022/06/12 09:53:33;;;;;;;1.15;1.15;;;;;;;;;;5048695;28;20235;-62
2022/06/12 09:56:02;;;;;;;3.15;1.00;;;;;;;;;;5047933;28;20534;-62
2022/06/12 09:58:34;;;;;;;2.03;1.38;;;;;;;;;;5048012;28;20208;-61
2022/06/12 10:01:04;;;;;;;1.63;1.08;;;;;;;;;;5043811;28;20207;-61
2022/06/12 10:03:35;;;;;;;1.38;1.27;;;;;;;;;;5048028;28;20294;-61
2022/06/12 10:06:04;;;;;;;2.15;1.95;;;;;;;;;;5048251;28;20244;-61
2022/06/12 10:08:33;;;;;;;1.40;1.27;;;;;;;;;;5047495;28;20207;-60
2022/06/12 10:11:04;;;;;;;1.15;1.08;;;;;;;;;;5048013;28;20219;-60
2022/06/12 10:13:34;;;;;;;1.33;1.08;;;;;;;;;;5047856;28;20215;-60
2022/06/12 10:16:04;;;;;;;1.13;1.00;;;;;;;;;;5047117;28;20206;-60
2022/06/12 10:18:35;;;;;;;3.25;1.27;;;;;;;;;;5047625;28;20612;-60
2022/06/12 10:21:03;;;;;;;2.13;1.25;;;;;;;;;;5048223;28;20207;-60
2022/06/12 10:23:30;;;;;;;1.40;1.40;;;;;;;;;;5047728;28;20195;-61
2022/06/12 10:25:59;;;;;;;1.00;1.00;;;;;;;;;;5047581;28;20769;-61
2022/06/12 10:28:28;;;;;;;1.23;1.10;;;;;;;;;;5047759;28;20877;-61
2022/06/12 10:31:05;;;;;;;1.17;1.08;;;;;;;;;;5048209;28;20199;-61
2022/06/12 10:33:35;;;;;;;1.75;1.40;;;;;;;;;;5047367;28;20211;-61
2022/06/12 10:36:03;;;;;;;1.70;0.82;;;;;;;;;;5047835;28;20207;-61
2022/06/12 10:38:31;;;;;;;0.70;0.68;;;;;;;;;;5047672;28;20206;-60
2022/06/12 10:41:09;;;;;;;1.30;1.20;;;;;;;;;;5047422;28;20262;-61
2022/06/12 10:43:38;;;;;;;0.73;0.73;;;;;;;;;;5047019;28;20752;-62
2022/06/12 10:46:08;;;;;;;1.70;1.00;;;;;;;;;;5041512;28;20211;-61
2022/06/12 10:48:36;;;;;;;1.00;1.00;;;;;;;;;;5042841;28;20250;-61
2022/06/12 10:51:05;;;;;;;1.30;0.80;;;;;;;;;;5035505;28;20822;-61
2022/06/12 10:53:33;;;;;;;1.30;1.20;;;;;;;;;;5040801;28;20239;-61
2022/06/12 10:56:02;;;;;;;1.20;1.10;;;;;;;;;;5047598;28;20449;-60
2022/06/12 10:58:44;;;;;;;1.83;0.93;;;;;;;;;;5046820;28;20265;-62
2022/06/12 11:01:18;;;;;;;1.27;0.90;;;;;;;;;;5042479;28;20290;-61
2022/06/12 11:03:54;;;;;;;1.95;0.90;;;;;;;;;;5047444;28;20210;-62
2022/06/12 11:06:23;;;;;;;0.80;0.80;;;;;;;;;;5038487;28;20284;-61
2022/06/12 11:09:02;;;;;;;0.88;0.88;;;;;;;;;;5042841;28;20571;-62
2022/06/12 11:11:33;;;;;;;0.85;0.77;;;;;;;;;;5044455;28;20203;-61
2022/06/12 11:14:07;;;;;;;1.30;1.00;;;;;;;;;;5047726;28;20207;-62
2022/06/12 11:16:43;;;;;;;1.17;0.95;;;;;;;;;;5043506;28;20256;-61
2022/06/12 11:19:16;;;;;;;2.00;1.23;;;;;;;;;;5047280;28;20260;-61
2022/06/12 11:21:47;;;;;;;1.10;1.05;;;;;;;;;;5047272;28;20199;-62
2022/06/12 11:24:16;;;;;;;2.75;1.23;;;;;;;;;;5047774;28;20441;-60
2022/06/12 11:27:01;;;;;;;1.17;0.80;;;;;;;;;;5047976;28;20214;-61
2022/06/12 11:29:43;;;;;;;1.00;1.00;;;;;;;;;;5034342;28;20223;-65
2022/06/12 11:32:16;;;;;;;1.20;1.00;;;;;;;;;;5044755;28;20235;-61
2022/06/12 11:34:50;;;;;;;0.82;0.82;;;;;;;;;;5047246;28;20689;-61
2022/06/12 11:37:25;;;;;;;1.15;1.05;;;;;;;;;;5046450;28;20207;-61
2022/06/12 11:39:56;;;;;;;1.15;1.15;;;;;;;;;;5037096;28;20684;-62
2022/06/12 11:42:30;;;;;;;2.60;1.13;;;;;;;;;;5045641;28;20203;-61
2022/06/12 11:45:02;;;;;;;0.95;0.95;;;;;;;;;;5046835;28;20227;-61
2022/06/12 11:47:38;;;;;;;0.90;0.90;;;;;;;;;;5046684;28;20204;-61
2022/06/12 11:50:13;;;;;;;0.88;0.85;;;;;;;;;;5046219;28;20203;-61
2022/06/12 11:52:47;;;;;;;1.17;0.95;;;;;;;;;;5045856;28;20233;-61
2022/06/12 11:55:19;;;;;;;1.33;0.70;;;;;;;;;;5046352;28;20242;-61
2022/06/12 11:57:54;;;;;;;1.25;0.90;;;;;;;;;;5046686;28;20215;-61
2022/06/12 12:00:24;;;;;;;0.93;0.93;;;;;;;;;;5045581;28;20203;-61
2022/06/12 12:02:56;;;;;;;1.08;1.08;;;;;;;;;;5046386;28;20215;-61
2022/06/12 12:05:37;;;;;;;0.88;0.88;;;;;;;;;;5047047;28;20211;-61
2022/06/12 12:08:13;;;;;;;0.80;0.80;;;;;;;;;;5047191;28;20306;-61
2022/06/12 12:10:46;;;;;;;1.20;1.10;;;;;;;;;;5047454;28;20238;-61
2022/06/12 12:13:15;;;;;;;0.90;0.90;;;;;;;;;;5046356;28;20274;-61
2022/06/12 12:15:45;;;;;;;2.42;1.05;;;;;;;;;;5045410;28;20703;-65
2022/06/12 12:18:17;;;;;;;1.40;1.05;;;;;;;;;;5046506;28;20413;-61
2022/06/12 12:20:45;;;;;;;0.95;0.95;;;;;;;;;;5047064;28;20665;-61
2022/06/12 12:23:13;;;;;;;0.85;0.85;;;;;;;;;;5045758;28;20215;-62
2022/06/12 12:25:42;;;;;;;0.95;0.82;;;;;;;;;;5046784;28;20215;-62
2022/06/12 12:28:16;;;;;;;1.08;0.95;;;;;;;;;;5046793;28;20238;-70
2022/06/12 12:30:44;;;;;;;0.80;0.80;;;;;;;;;;5045044;28;21030;-62
2022/06/12 12:33:14;;;;;;;0.80;0.80;;;;;;;;;;5045986;28;20756;-62
2022/06/12 12:41:15;;;;;;;0.90;0.90;;;;;;;;;;5046372;28;20210;-61
2022/06/12 12:43:49;;;;;;;1.20;0.93;;;;;;;;;;5046820;28;20216;-61
2022/06/12 12:46:17;;;;;;;1.90;1.10;;;;;;;;;;5045826;28;20257;-61
2022/06/12 12:48:45;;;;;;;1.15;1.10;;;;;;;;;;5045871;28;20216;-61
2022/06/12 12:51:24;;;;;;;0.95;0.90;;;;;;;;;;5044835;28;20306;-62
2022/06/12 12:53:52;;;;;;;0.80;0.80;;;;;;;;;;5045846;28;20313;-61
2022/06/12 12:56:27;;;;;;;1.02;1.02;;;;;;;;;;5045752;28;20251;-61
2022/06/12 12:58:56;;;;;;;1.77;0.95;;;;;;;;;;5045836;28;20210;-61
2022/06/12 13:01:24;;;;;;;0.80;0.80;;;;;;;;;;5045839;28;20991;-62
2022/06/12 13:03:52;;;;;;;1.05;1.00;;;;;;;;;;5044698;28;20268;-62
2022/06/12 13:06:31;;;;;;;0.95;0.70;;;;;;;;;;5045835;28;20230;-62
2022/06/12 13:09:13;;;;;;;0.93;0.93;;;;;;;;;;5045294;28;20752;-62
2022/06/12 13:11:46;;;;;;;0.70;0.70;;;;;;;;;;5045469;28;20240;-62
2022/06/12 13:14:21;;;;;;;2.08;0.80;;;;;;;;;;5045020;28;20242;-62
2022/06/12 13:16:55;;;;;;;1.10;1.10;;;;;;;;;;5045588;28;21008;-61
2022/06/12 13:19:28;;;;;;;0.77;0.70;;;;;;;;;;5044647;28;20911;-61
2022/06/12 13:22:05;;;;;;;0.75;0.75;;;;;;;;;;5045772;28;20215;-61
2022/06/12 13:24:35;;;;;;;0.60;0.60;;;;;;;;;;5041762;28;20207;-62
2022/06/12 13:27:11;;;;;;;0.88;0.75;;;;;;;;;;5045792;28;20253;-62
2022/06/12 13:29:43;;;;;;;0.77;0.77;;;;;;;;;;5045732;28;20219;-62
2022/06/12 13:32:20;;;;;;;0.82;0.82;;;;;;;;;;5045519;28;20357;-62
2022/06/12 13:34:54;;;;;;;1.60;0.70;;;;;;;;;;5044263;28;20202;-62
2022/06/12 13:37:23;;;;;;;0.75;0.75;;;;;;;;;;5045530;28;20210;-62
2022/06/12 13:39:50;;;;;;;0.63;0.60;;;;;;;;;;5045422;28;20288;-62
2022/06/12 13:42:20;;;;;;;0.70;0.70;;;;;;;;;;5045044;28;20203;-62
2022/06/12 13:44:48;;;;;;;0.75;0.70;;;;;;;;;;5045036;28;20207;-62
2022/06/12 13:47:21;;;;;;;1.02;0.90;;;;;;;;;;5044914;28;20262;-61
2022/06/12 13:49:50;;;;;;;0.93;0.93;;;;;;;;;;5044620;28;20743;-62
2022/06/12 13:52:23;;;;;;;0.80;0.70;;;;;;;;;;5043686;28;20211;-62
2022/06/12 13:54:51;;;;;;;0.73;0.57;;;;;;;;;;5044565;28;20234;-62
2022/06/12 13:57:24;;;;;;;0.63;0.63;;;;;;;;;;5044657;28;20222;-62
2022/06/12 13:59:51;;;;;;;0.75;0.63;;;;;;;;;;5044964;28;20264;-62
2022/06/12 14:02:20;;;;;;;1.02;1.02;;;;;;;;;;5044687;28;20215;-62
2022/06/12 14:04:52;;;;;;;0.80;0.80;;;;;;;;;;5044333;28;20219;-62
2022/06/12 14:07:19;;;;;;;1.63;0.85;;;;;;;;;;5044039;28;20219;-62
2022/06/12 14:09:47;;;;;;;0.80;0.80;;;;;;;;;;5044430;28;20215;-62
2022/06/12 14:12:15;;;;;;;0.75;0.75;;;;;;;;;;5042999;28;20643;-62
2022/06/12 14:14:43;;;;;;;0.80;0.80;;;;;;;;;;5044276;28;20211;-62
2022/06/12 14:17:21;;;;;;;1.25;1.00;;;;;;;;;;5043920;28;20207;-62
2022/06/12 14:19:56;;;;;;;0.85;0.85;;;;;;;;;;5044340;28;20215;-62
2022/06/12 14:22:24;;;;;;;0.82;0.82;;;;;;;;;;5044298;28;20214;-62
2022/06/12 14:24:57;;;;;;;2.13;1.40;;;;;;;;;;5044393;28;20265;-61
2022/06/12 14:27:32;;;;;;;0.70;0.70;;;;;;;;;;5031599;28;20731;-62
2022/06/12 14:29:59;;;;;;;0.82;0.82;;;;;;;;;;5044613;28;20215;-62
2022/06/12 14:32:28;;;;;;;0.77;0.77;;;;;;;;;;5042007;28;20208;-62
2022/06/12 14:35:13;;;;;;;0.68;0.68;;;;;;;;;;5038432;28;20238;-62
2022/06/12 14:37:42;;;;;;;0.77;0.75;;;;;;;;;;5024205;28;20216;-62
2022/06/12 14:40:23;;;;;;;0.90;0.88;;;;;;;;;;5031307;28;20215;-62
2022/06/12 14:42:54;;;;;;;0.68;0.68;;;;;;;;;;5041363;28;20219;-62
2022/06/12 14:45:21;;;;;;;1.33;1.23;;;;;;;;;;5043853;28;20297;-62
2022/06/12 14:47:51;;;;;;;1.85;0.90;;;;;;;;;;5042862;28;20296;-62
2022/06/12 14:50:18;;;;;;;0.82;0.82;;;;;;;;;;5042510;28;20616;-61
2022/06/12 14:52:45;;;;;;;0.70;0.70;;;;;;;;;;5042630;28;20252;-61
2022/06/12 14:55:12;;;;;;;0.85;0.85;;;;;;;;;;5042550;28;20246;-61
2022/06/12 14:57:39;;;;;;;0.95;0.95;;;;;;;;;;5043516;28;20215;-62
2022/06/12 15:00:11;;;;;;;1.48;0.65;;;;;;;;;;5042972;28;20257;-63
2022/06/12 15:02:38;;;;;;;0.80;0.80;;;;;;;;;;5040704;28;20952;-62
2022/06/12 15:05:11;;;;;;;0.82;0.82;;;;;;;;;;5043590;28;20582;-62
2022/06/12 15:07:38;;;;;;;0.50;0.50;;;;;;;;;;5044202;28;20332;-62
2022/06/12 15:10:05;;;;;;;0.60;0.60;;;;;;;;;;5043791;28;20211;-63
2022/06/12 15:12:32;;;;;;;0.60;0.60;;;;;;;;;;5043749;28;20686;-62
2022/06/12 15:14:59;;;;;;;1.30;0.77;;;;;;;;;;5042603;28;20277;-62
2022/06/12 15:17:28;;;;;;;2.28;0.55;;;;;;;;;;5044239;28;20751;-62
2022/06/12 15:19:55;;;;;;;0.60;0.60;;;;;;;;;;5044138;28;20723;-63
2022/06/12 15:22:22;;;;;;;0.50;0.50;;;;;;;;;;5044613;28;20222;-62